KCPC

Details ICAO KCPC
Name COLUMBUS CO MUNI
Region United States
Timezone America/New_York (UTC-4.0)
Plans Departing 3
Arriving 7
Stats Elevation 98 ft / 30 m (AMSL)
Location 34.272872° -78.714990°
Runways 1
Magnetic Variation 8.968° W
Sunrise 2018-05-26 10:07:44 UTC / 2018-05-26 06:07:44 Local
Sunset 2018-05-27 00:19:00 UTC / 2018-05-26 20:19:00 Local
Advertisement - Login to hide

Runways

ID Width Length Bearing (true) Bearing (mag) Surface Threshold Offset Overrun Length
06 75 ft / 23 m 5,504 ft / 1,677 m 41.98° 50.95° Asphalt 0 ft / 0 m 0 ft / 0 m
24 75 ft / 23 m 5,504 ft / 1,677 m 221.99° 230.96° Asphalt 0 ft / 0 m 0 ft / 0 m

Map

Weather


0- 5 10 15 20 25 30 35+ Temperature / ° C

Clouds and Precipitation
Forecast for 2018-05-26 06:00 UTC. Updated an hour ago

Ground ~20,000 ft ~40,000 ft Winds

METAR

KCPC 260635Z AUTO 00000KT 10SM CLR 22/21 A3000 RMK AO2 P0001 T02150210

TAF

Not found

Frequencies

Recorded 118.37 MHz AWOS 3
Approach 119.20 MHz MYRTLE BEACH APP/DEP
Unicom 122.80 MHz CTAF/UNICOM
Warning: Do not use this data for real-world aviation or navigation. No guarantee of current accuracy is given.